createdAt,value
2016-12-17T00:00:59.778Z,17.84
2016-12-17T00:01:59.760Z,17.77
2016-12-17T00:02:59.741Z,17.74
2016-12-17T00:03:59.722Z,17.68
2016-12-17T00:04:59.707Z,17.6
2016-12-17T00:05:59.691Z,17.54
2016-12-17T00:06:59.676Z,17.62
2016-12-17T00:07:59.657Z,17.89
2016-12-17T00:08:59.674Z,18.21
2016-12-17T00:09:59.622Z,18.39
2016-12-17T00:10:59.607Z,18.47
2016-12-17T00:11:59.586Z,18.65
2016-12-17T00:12:59.570Z,18.68
2016-12-17T00:13:59.561Z,18.72
2016-12-17T00:14:59.218Z,18.72
2016-12-17T00:15:59.529Z,18.79
2016-12-17T00:16:59.192Z,18.78
2016-12-17T00:17:59.487Z,18.71
2016-12-17T00:18:59.476Z,18.87
2016-12-17T00:19:59.448Z,18.84
2016-12-17T00:20:58.815Z,18.93
2016-12-17T00:21:59.418Z,18.86
2016-12-17T00:22:59.395Z,18.83
2016-12-17T00:23:59.067Z,18.87
2016-12-17T00:24:59.052Z,18.84
2016-12-17T00:25:59.345Z,18.86
2016-12-17T00:26:59.336Z,18.89
2016-12-17T00:27:59.313Z,18.86
2016-12-17T00:28:59.297Z,18.76
2016-12-17T00:29:59.290Z,18.89
2016-12-17T00:30:59.266Z,18.89
2016-12-17T00:31:59.252Z,18.87
2016-12-17T00:32:59.227Z,18.87
2016-12-17T00:33:59.209Z,18.84
2016-12-17T00:34:59.202Z,18.79
2016-12-17T00:35:59.180Z,18.86
2016-12-17T00:36:58.896Z,18.89
2016-12-17T00:37:59.148Z,18.89
2016-12-17T00:38:59.125Z,18.84
2016-12-17T00:39:59.122Z,18.76
2016-12-17T00:40:59.095Z,18.76
2016-12-17T00:41:58.763Z,18.84
2016-12-17T00:42:58.778Z,18.75
2016-12-17T00:43:59.035Z,18.72
2016-12-17T00:44:59.024Z,18.75
2016-12-17T00:45:58.711Z,18.79
2016-12-17T00:46:58.670Z,18.76
2016-12-17T00:47:58.979Z,18.87
2016-12-17T00:48:58.963Z,18.75
2016-12-17T00:49:58.626Z,18.86
2016-12-17T00:50:58.924Z,18.75
2016-12-17T00:51:58.274Z,18.75
2016-12-17T00:52:58.576Z,18.76
2016-12-17T00:53:58.871Z,18.75
2016-12-17T00:54:58.856Z,18.74
2016-12-17T00:55:58.840Z,18.78
2016-12-17T00:56:58.819Z,18.84
2016-12-17T00:57:58.806Z,18.82
2016-12-17T00:58:58.788Z,18.74
2016-12-17T00:59:58.773Z,18.74
2016-12-17T01:00:58.431Z,18.74
2016-12-17T01:01:58.415Z,18.75
2016-12-17T01:02:58.720Z,18.76
2016-12-17T01:03:58.697Z,18.78
2016-12-17T01:04:58.691Z,18.71
2016-12-17T01:05:58.406Z,18.78
2016-12-17T01:06:58.647Z,18.78
2016-12-17T01:07:58.634Z,18.71
2016-12-17T01:08:58.611Z,18.76
2016-12-17T01:09:58.597Z,18.71
2016-12-17T01:10:58.576Z,18.68
2016-12-17T01:11:58.563Z,18.59
2016-12-17T01:12:58.540Z,18.71
2016-12-17T01:13:58.528Z,18.76
2016-12-17T01:14:58.511Z,18.69
2016-12-17T01:15:58.498Z,18.71
2016-12-17T01:16:58.484Z,18.72
2016-12-17T01:17:58.460Z,18.71
2016-12-17T01:18:58.454Z,18.72
2016-12-17T01:19:58.423Z,18.62
2016-12-17T01:20:58.406Z,18.72
2016-12-17T01:21:58.392Z,18.74
2016-12-17T01:22:58.372Z,18.75
2016-12-17T01:23:58.357Z,18.6
2016-12-17T01:24:58.334Z,18.65
2016-12-17T01:25:58.350Z,18.65
2016-12-17T01:26:58.299Z,18.64
2016-12-17T01:27:58.280Z,18.64
2016-12-17T01:28:57.951Z,18.71
2016-12-17T01:29:58.251Z,18.71
2016-12-17T01:30:58.280Z,18.59
2016-12-17T01:31:57.584Z,18.62
2016-12-17T01:32:58.203Z,18.66
2016-12-17T01:33:57.868Z,18.62
2016-12-17T01:34:57.878Z,18.66
2016-12-17T01:35:57.827Z,18.62
2016-12-17T01:36:58.132Z,18.62
2016-12-17T01:37:58.113Z,18.64
2016-12-17T01:38:57.779Z,18.65
2016-12-17T01:39:57.442Z,18.72
2016-12-17T01:40:58.061Z,18.68
2016-12-17T01:41:58.038Z,18.65
2016-12-17T01:42:57.398Z,18.57
2016-12-17T01:43:57.695Z,18.69
2016-12-17T01:44:57.672Z,18.65
2016-12-17T01:45:57.975Z,18.57
2016-12-17T01:46:57.639Z,18.64
2016-12-17T01:47:57.940Z,18.54
2016-12-17T01:48:57.921Z,18.65
2016-12-17T01:49:57.591Z,18.62
2016-12-17T01:50:57.886Z,18.65
2016-12-17T01:51:57.877Z,18.57
2016-12-17T01:52:57.851Z,18.64
2016-12-17T01:53:57.835Z,18.64
2016-12-17T01:54:57.817Z,18.6
2016-12-17T01:55:57.800Z,18.64
2016-12-17T01:56:57.779Z,18.59
2016-12-17T01:57:57.765Z,18.66
2016-12-17T01:58:57.746Z,18.66
2016-12-17T01:59:57.729Z,18.65
2016-12-17T02:00:57.713Z,18.65
2016-12-17T02:01:57.696Z,18.62
2016-12-17T02:02:57.681Z,18.57
2016-12-17T02:03:57.660Z,18.56
2016-12-17T02:04:57.336Z,18.65
2016-12-17T02:05:56.996Z,18.62
2016-12-17T02:06:57.294Z,18.64
2016-12-17T02:07:57.599Z,18.66
2016-12-17T02:08:57.577Z,18.65
2016-12-17T02:09:57.557Z,18.65
2016-12-17T02:10:57.545Z,18.65
2016-12-17T02:11:57.523Z,18.53
2016-12-17T02:12:57.509Z,18.6
2016-12-17T02:13:57.484Z,18.59
2016-12-17T02:14:57.471Z,18.59
2016-12-17T02:15:57.141Z,18.53
2016-12-17T02:16:57.126Z,18.59
2016-12-17T02:17:57.427Z,18.57
2016-12-17T02:18:57.086Z,18.64
2016-12-17T02:19:57.385Z,18.57
2016-12-17T02:20:57.367Z,18.65
2016-12-17T02:21:57.035Z,18.56
2016-12-17T02:22:57.338Z,18.59
2016-12-17T02:23:57.315Z,18.54
2016-12-17T02:24:57.302Z,18.56
2016-12-17T02:25:56.966Z,18.56
2016-12-17T02:26:56.949Z,18.51
2016-12-17T02:27:57.246Z,18.56
2016-12-17T02:28:57.227Z,18.56
2016-12-17T02:29:56.897Z,18.53
2016-12-17T02:30:57.196Z,18.49
2016-12-17T02:31:56.547Z,18.57
2016-12-17T02:32:57.164Z,18.54
2016-12-17T02:33:56.830Z,18.53
2016-12-17T02:34:57.132Z,18.5
2016-12-17T02:35:57.108Z,18.53
2016-12-17T02:36:57.095Z,18.54
2016-12-17T02:37:57.073Z,18.56
2016-12-17T02:38:57.065Z,18.51
2016-12-17T02:39:57.041Z,18.59
2016-12-17T02:40:57.020Z,18.57
2016-12-17T02:41:56.691Z,18.54
2016-12-17T02:42:56.983Z,18.53
2016-12-17T02:43:56.965Z,18.59
2016-12-17T02:44:56.953Z,18.59
2016-12-17T02:45:56.622Z,18.53
2016-12-17T02:46:56.914Z,18.57
2016-12-17T02:47:56.901Z,18.5
2016-12-17T02:48:56.887Z,18.57
2016-12-17T02:49:56.867Z,18.54
2016-12-17T02:50:56.855Z,18.57
2016-12-17T02:51:56.836Z,18.53
2016-12-17T02:52:56.811Z,18.57
2016-12-17T02:53:56.797Z,18.53
2016-12-17T02:54:56.786Z,18.53
2016-12-17T02:55:56.765Z,18.5
2016-12-17T02:56:56.747Z,18.41
2016-12-17T02:57:56.726Z,18.47
2016-12-17T02:58:56.705Z,18.5
2016-12-17T02:59:56.374Z,18.56
2016-12-17T03:00:56.365Z,18.53
2016-12-17T03:01:56.655Z,18.53
2016-12-17T03:02:56.322Z,18.54
2016-12-17T03:03:56.621Z,18.49
2016-12-17T03:04:56.604Z,18.51
2016-12-17T03:05:56.589Z,18.53
2016-12-17T03:06:56.258Z,18.56
2016-12-17T03:07:56.558Z,18.44
2016-12-17T03:08:56.533Z,18.41
2016-12-17T03:09:55.890Z,18.51
2016-12-17T03:10:56.502Z,18.42
2016-12-17T03:11:56.169Z,18.57
2016-12-17T03:12:56.152Z,18.53
2016-12-17T03:13:56.450Z,18.38
2016-12-17T03:14:56.113Z,18.38
2016-12-17T03:15:56.415Z,18.5
2016-12-17T03:16:56.084Z,18.51
2016-12-17T03:17:56.060Z,18.49
2016-12-17T03:18:56.363Z,18.36
2016-12-17T03:19:56.349Z,18.5
2016-12-17T03:20:56.012Z,18.42
2016-12-17T03:21:56.305Z,18.38
2016-12-17T03:22:56.294Z,18.42
2016-12-17T03:23:56.274Z,18.53
2016-12-17T03:24:56.259Z,18.5
2016-12-17T03:25:55.927Z,18.51
2016-12-17T03:26:56.225Z,18.35
2016-12-17T03:27:56.204Z,18.39
2016-12-17T03:28:56.186Z,18.53
2016-12-17T03:29:56.171Z,18.51
2016-12-17T03:30:55.838Z,18.42
2016-12-17T03:31:56.141Z,18.53
2016-12-17T03:32:56.120Z,18.41
2016-12-17T03:33:56.100Z,18.5
2016-12-17T03:34:55.771Z,18.38
2016-12-17T03:35:56.070Z,18.46
2016-12-17T03:36:56.047Z,18.39
2016-12-17T03:37:56.031Z,18.47
2016-12-17T03:38:56.021Z,18.38
2016-12-17T03:39:55.995Z,18.41
2016-12-17T03:40:55.978Z,18.35
2016-12-17T03:41:55.645Z,18.34
2016-12-17T03:42:55.973Z,18.35
2016-12-17T03:43:55.930Z,18.34
2016-12-17T03:44:55.909Z,18.38
2016-12-17T03:45:55.580Z,18.46
2016-12-17T03:46:55.873Z,18.38
2016-12-17T03:47:55.852Z,18.44
2016-12-17T03:48:55.212Z,18.35
2016-12-17T03:49:55.508Z,18.35
2016-12-17T03:50:55.806Z,18.39
2016-12-17T03:51:55.815Z,18.36
2016-12-17T03:52:55.770Z,18.36
2016-12-17T03:53:55.809Z,18.38
2016-12-17T03:54:55.421Z,18.41
2016-12-17T03:55:55.726Z,18.35
2016-12-17T03:56:55.701Z,18.39
2016-12-17T03:57:55.684Z,18.39
2016-12-17T03:58:55.670Z,18.42
2016-12-17T03:59:55.655Z,18.41
2016-12-17T04:00:55.632Z,18.41
2016-12-17T04:01:55.617Z,18.39
2016-12-17T04:02:55.281Z,18.35
2016-12-17T04:03:55.583Z,18.39
2016-12-17T04:04:55.562Z,18.44
2016-12-17T04:05:55.546Z,18.36
2016-12-17T04:06:55.527Z,18.39
2016-12-17T04:07:55.514Z,18.39
2016-12-17T04:08:55.486Z,18.36
2016-12-17T04:09:55.167Z,18.39
2016-12-17T04:10:55.458Z,18.38
2016-12-17T04:11:55.120Z,18.36
2016-12-17T04:12:55.422Z,18.5
2016-12-17T04:13:55.405Z,18.32
2016-12-17T04:14:55.387Z,18.38
2016-12-17T04:15:55.370Z,18.46
2016-12-17T04:16:55.047Z,18.39
2016-12-17T04:17:55.018Z,18.42
2016-12-17T04:18:55.319Z,18.41
2016-12-17T04:19:55.316Z,18.41
2016-12-17T04:20:55.284Z,18.35
2016-12-17T04:21:55.270Z,18.39
2016-12-17T04:22:55.276Z,18.41
2016-12-17T04:23:55.231Z,18.44
2016-12-17T04:24:55.215Z,18.38
2016-12-17T04:25:55.201Z,18.41
2016-12-17T04:26:55.181Z,18.34
2016-12-17T04:27:55.166Z,18.32
2016-12-17T04:28:55.145Z,18.42
2016-12-17T04:29:55.127Z,18.35
2016-12-17T04:30:55.106Z,18.35
2016-12-17T04:31:55.091Z,18.35
2016-12-17T04:32:55.072Z,18.38
2016-12-17T04:33:54.739Z,18.41
2016-12-17T04:34:55.051Z,18.34
2016-12-17T04:35:55.020Z,18.35
2016-12-17T04:36:55.007Z,18.35
2016-12-17T04:37:54.674Z,18.36
2016-12-17T04:38:54.973Z,18.41
2016-12-17T04:39:54.641Z,18.39
2016-12-17T04:40:54.937Z,18.35
2016-12-17T04:41:54.601Z,18.41
2016-12-17T04:42:54.582Z,18.34
2016-12-17T04:43:54.882Z,18.44
2016-12-17T04:44:54.861Z,18.38
2016-12-17T04:45:54.532Z,18.35
2016-12-17T04:46:54.839Z,18.38
2016-12-17T04:47:54.810Z,18.39
2016-12-17T04:48:54.493Z,18.46
2016-12-17T04:49:54.467Z,18.34
2016-12-17T04:50:54.767Z,18.31
2016-12-17T04:51:54.765Z,18.41
2016-12-17T04:52:54.725Z,18.41
2016-12-17T04:53:54.719Z,18.38
2016-12-17T04:54:54.690Z,18.41
2016-12-17T04:55:54.679Z,18.38
2016-12-17T04:56:54.343Z,18.35
2016-12-17T04:57:54.643Z,18.35
2016-12-17T04:58:54.623Z,18.35
2016-12-17T04:59:54.602Z,18.36
2016-12-17T05:00:54.591Z,18.34
2016-12-17T05:01:54.568Z,18.34
2016-12-17T05:02:54.558Z,18.32
2016-12-17T05:03:54.227Z,18.29
2016-12-17T05:04:54.520Z,18.32
2016-12-17T05:05:54.183Z,18.44
2016-12-17T05:06:54.483Z,18.35
2016-12-17T05:07:54.464Z,18.51
2016-12-17T05:08:54.451Z,18.53
2016-12-17T05:09:54.427Z,18.59
2016-12-17T05:10:54.100Z,18.66
2016-12-17T05:11:54.391Z,18.71
2016-12-17T05:12:54.060Z,18.9
2016-12-17T05:13:54.357Z,19.01
2016-12-17T05:14:54.336Z,18.94
2016-12-17T05:15:54.332Z,18.97
2016-12-17T05:16:54.310Z,19.09
2016-12-17T05:17:53.976Z,19.13
2016-12-17T05:18:54.274Z,19.23
2016-12-17T05:19:54.258Z,19.15
2016-12-17T05:20:53.608Z,19.24
2016-12-17T05:21:54.225Z,19.3
2016-12-17T05:22:54.204Z,19.2
2016-12-17T05:23:54.180Z,19.28
2016-12-17T05:24:54.171Z,19.24
2016-12-17T05:25:54.151Z,19.34
2016-12-17T05:26:54.135Z,19.28
2016-12-17T05:27:54.116Z,19.3
2016-12-17T05:28:54.097Z,19.35
2016-12-17T05:29:54.079Z,19.47
2016-12-17T05:30:54.071Z,19.46
2016-12-17T05:31:54.051Z,19.4
2016-12-17T05:32:53.720Z,19.42
2016-12-17T05:33:54.015Z,19.47
2016-12-17T05:34:53.687Z,19.58
2016-12-17T05:35:53.987Z,19.47
2016-12-17T05:36:53.651Z,19.43
2016-12-17T05:37:53.948Z,19.45
2016-12-17T05:38:53.622Z,19.39
2016-12-17T05:39:53.908Z,19.43
2016-12-17T05:40:53.899Z,19.42
2016-12-17T05:41:53.881Z,19.46
2016-12-17T05:42:53.544Z,19.52
2016-12-17T05:43:53.525Z,19.55
2016-12-17T05:44:53.874Z,19.55
2016-12-17T05:45:53.812Z,19.52
2016-12-17T05:46:53.794Z,19.4
2016-12-17T05:47:53.780Z,19.55
2016-12-17T05:48:53.761Z,19.46
2016-12-17T05:49:53.832Z,19.55
2016-12-17T05:50:53.407Z,19.57
2016-12-17T05:51:53.391Z,19.4
2016-12-17T05:52:53.376Z,19.53
2016-12-17T05:53:53.671Z,19.52
2016-12-17T05:54:53.029Z,19.52
2016-12-17T05:55:53.636Z,19.5
2016-12-17T05:56:53.623Z,19.55
2016-12-17T05:57:53.610Z,19.52
2016-12-17T05:58:53.281Z,19.6
2016-12-17T05:59:53.576Z,19.52
2016-12-17T06:00:53.555Z,19.53
2016-12-17T06:01:53.538Z,19.57
2016-12-17T06:02:53.204Z,19.57
2016-12-17T06:03:53.189Z,19.57
2016-12-17T06:04:53.486Z,19.61
2016-12-17T06:05:53.474Z,19.55
2016-12-17T06:06:53.137Z,19.58
2016-12-17T06:07:53.488Z,19.6
2016-12-17T06:08:53.420Z,19.55
2016-12-17T06:09:53.090Z,19.53
2016-12-17T06:10:53.381Z,19.57
2016-12-17T06:11:53.057Z,19.53
2016-12-17T06:12:53.040Z,19.58
2016-12-17T06:13:53.019Z,19.61
2016-12-17T06:14:53.000Z,19.62
2016-12-17T06:15:53.305Z,19.62
2016-12-17T06:16:53.283Z,19.58
2016-12-17T06:17:53.269Z,19.67
2016-12-17T06:18:53.253Z,19.64
2016-12-17T06:19:53.234Z,19.72
2016-12-17T06:20:53.212Z,19.68
2016-12-17T06:21:52.877Z,19.71
2016-12-17T06:22:53.188Z,19.65
2016-12-17T06:23:52.857Z,19.64
2016-12-17T06:24:52.832Z,19.68
2016-12-17T06:25:53.131Z,19.62
2016-12-17T06:26:52.803Z,19.67
2016-12-17T06:27:53.100Z,19.62
2016-12-17T06:28:53.086Z,19.72
2016-12-17T06:29:53.066Z,19.7
2016-12-17T06:30:52.731Z,19.68
2016-12-17T06:31:53.035Z,19.72
2016-12-17T06:32:53.021Z,19.71
2016-12-17T06:33:52.995Z,19.65
2016-12-17T06:34:52.980Z,19.65
2016-12-17T06:35:53.017Z,19.72
2016-12-17T06:36:52.640Z,19.71
2016-12-17T06:37:52.929Z,19.71
2016-12-17T06:38:52.945Z,19.67
2016-12-17T06:39:52.580Z,19.71
2016-12-17T06:40:52.561Z,19.68
2016-12-17T06:41:52.552Z,19.75
2016-12-17T06:42:52.532Z,19.7
2016-12-17T06:43:52.847Z,19.79
2016-12-17T06:44:52.816Z,19.78
2016-12-17T06:45:52.795Z,19.68
2016-12-17T06:46:52.775Z,19.8
2016-12-17T06:47:52.763Z,19.82
2016-12-17T06:48:52.747Z,19.78
2016-12-17T06:49:52.091Z,19.79
2016-12-17T06:50:52.713Z,19.82
2016-12-17T06:51:52.704Z,19.85
2016-12-17T06:52:52.678Z,19.79
2016-12-17T06:53:52.343Z,19.65
2016-12-17T06:54:52.646Z,19.27
2016-12-17T06:55:52.315Z,19.16
2016-12-17T06:56:52.612Z,18.84
2016-12-17T06:57:52.285Z,18.64
2016-12-17T06:58:52.579Z,18.54
2016-12-17T06:59:52.249Z,18.57
2016-12-17T07:00:52.555Z,18.62
2016-12-17T07:01:52.210Z,18.86
2016-12-17T07:02:52.511Z,19.01
2016-12-17T07:03:52.497Z,19.12
2016-12-17T07:04:52.478Z,19.31
2016-12-17T07:05:52.147Z,19.32
2016-12-17T07:06:52.441Z,19.4
2016-12-17T07:07:52.110Z,19.6
2016-12-17T07:08:52.092Z,19.57
2016-12-17T07:09:52.086Z,19.68
2016-12-17T07:10:52.379Z,19.61
2016-12-17T07:11:52.362Z,19.61
2016-12-17T07:12:52.355Z,19.64
2016-12-17T07:13:52.037Z,19.61
2016-12-17T07:14:52.312Z,19.7
2016-12-17T07:15:52.293Z,19.68
2016-12-17T07:16:52.276Z,19.71
2016-12-17T07:17:52.259Z,19.65
2016-12-17T07:18:51.925Z,19.79
2016-12-17T07:19:52.228Z,19.68
2016-12-17T07:20:51.899Z,19.67
2016-12-17T07:21:52.196Z,19.8
2016-12-17T07:22:51.865Z,19.78
2016-12-17T07:23:52.159Z,19.79
2016-12-17T07:24:52.144Z,19.76
2016-12-17T07:25:52.121Z,19.75
2016-12-17T07:26:52.110Z,19.78
2016-12-17T07:27:52.097Z,19.76
2016-12-17T07:28:52.074Z,19.85
2016-12-17T07:29:51.748Z,19.79
2016-12-17T07:30:52.040Z,19.75
2016-12-17T07:31:51.712Z,19.78
2016-12-17T07:32:52.009Z,19.83
2016-12-17T07:33:51.999Z,19.83
2016-12-17T07:34:51.986Z,19.82
2016-12-17T07:35:51.963Z,19.8
2016-12-17T07:36:51.942Z,19.82
2016-12-17T07:37:51.930Z,19.82
2016-12-17T07:38:51.909Z,19.8
2016-12-17T07:39:51.576Z,19.8
2016-12-17T07:40:51.567Z,19.82
2016-12-17T07:41:51.860Z,19.79
2016-12-17T07:42:51.840Z,19.79
2016-12-17T07:43:51.823Z,19.79
2016-12-17T07:44:51.496Z,19.83
2016-12-17T07:45:51.801Z,19.78
2016-12-17T07:46:51.461Z,19.85
2016-12-17T07:47:51.758Z,19.83
2016-12-17T07:48:51.745Z,19.9
2016-12-17T07:49:51.724Z,19.8
2016-12-17T07:50:51.707Z,19.85
2016-12-17T07:51:51.719Z,19.82
2016-12-17T07:52:51.361Z,19.82
2016-12-17T07:53:51.354Z,19.82
2016-12-17T07:54:51.644Z,19.83
2016-12-17T07:55:51.628Z,19.78
2016-12-17T07:56:51.608Z,19.82
2016-12-17T07:57:51.592Z,19.75
2016-12-17T07:58:51.607Z,19.83
2016-12-17T07:59:51.558Z,19.82
2016-12-17T08:00:51.545Z,19.8
2016-12-17T08:01:51.208Z,19.8
2016-12-17T08:02:51.507Z,19.82
2016-12-17T08:03:51.491Z,19.83
2016-12-17T08:04:51.481Z,19.86
2016-12-17T08:05:51.460Z,19.92
2016-12-17T08:06:51.455Z,19.89
2016-12-17T08:07:51.118Z,19.85
2016-12-17T08:08:51.091Z,19.83
2016-12-17T08:09:51.400Z,19.87
2016-12-17T08:10:51.376Z,19.86
2016-12-17T08:11:51.363Z,19.86
2016-12-17T08:12:51.028Z,19.89
2016-12-17T08:13:51.011Z,19.86
2016-12-17T08:14:51.307Z,19.86
2016-12-17T08:15:50.976Z,19.83
2016-12-17T08:16:50.643Z,19.86
2016-12-17T08:17:50.950Z,19.83
2016-12-17T08:18:50.933Z,19.85
2016-12-17T08:19:50.921Z,19.85
2016-12-17T08:20:50.909Z,19.8
2016-12-17T08:21:50.871Z,19.83
2016-12-17T08:22:50.862Z,19.82
2016-12-17T08:23:51.158Z,19.89
2016-12-17T08:24:51.139Z,19.83
2016-12-17T08:25:51.132Z,19.86
2016-12-17T08:26:51.131Z,19.86
2016-12-17T08:27:51.094Z,19.86
2016-12-17T08:28:51.088Z,19.98
2016-12-17T08:29:51.095Z,19.86
2016-12-17T08:30:50.728Z,19.87
2016-12-17T08:31:51.028Z,19.94
2016-12-17T08:32:50.700Z,19.83
2016-12-17T08:33:50.994Z,19.86
2016-12-17T08:34:50.987Z,19.9
2016-12-17T08:35:50.669Z,19.98
2016-12-17T08:36:50.943Z,19.92
2016-12-17T08:37:50.297Z,19.98
2016-12-17T08:38:50.590Z,19.89
2016-12-17T08:39:50.889Z,19.94
2016-12-17T08:40:50.878Z,19.87
2016-12-17T08:41:50.547Z,19.86
2016-12-17T08:42:50.853Z,19.86
2016-12-17T08:43:50.826Z,19.85
2016-12-17T08:44:50.813Z,19.85
2016-12-17T08:45:50.798Z,19.86
2016-12-17T08:46:50.779Z,19.97
2016-12-17T08:47:50.769Z,19.89
2016-12-17T08:48:50.744Z,19.94
2016-12-17T08:49:50.733Z,19.95
2016-12-17T08:50:50.400Z,19.98
2016-12-17T08:51:50.698Z,19.95
2016-12-17T08:52:50.363Z,19.95
2016-12-17T08:53:50.664Z,19.94
2016-12-17T08:54:50.647Z,19.95
2016-12-17T08:55:50.628Z,20.01
2016-12-17T08:56:49.982Z,19.98
2016-12-17T08:57:50.285Z,19.92
2016-12-17T08:58:50.580Z,19.94
2016-12-17T08:59:50.565Z,19.98
2016-12-17T09:00:50.236Z,20
2016-12-17T09:01:50.532Z,19.95
2016-12-17T09:02:50.519Z,19.94
2016-12-17T09:03:50.503Z,19.97
2016-12-17T09:04:50.171Z,20
2016-12-17T09:05:50.464Z,19.92
2016-12-17T09:06:50.452Z,19.97
2016-12-17T09:07:50.435Z,20
2016-12-17T09:08:50.410Z,20
2016-12-17T09:09:50.405Z,19.94
2016-12-17T09:10:50.384Z,19.89
2016-12-17T09:11:50.368Z,19.92
2016-12-17T09:12:50.350Z,19.9
2016-12-17T09:13:50.334Z,19.95
2016-12-17T09:14:49.996Z,19.95
2016-12-17T09:15:50.295Z,20.02
2016-12-17T09:16:50.286Z,19.94
2016-12-17T09:17:50.265Z,19.9
2016-12-17T09:18:50.254Z,19.95
2016-12-17T09:19:50.234Z,19.98
2016-12-17T09:20:50.219Z,19.95
2016-12-17T09:21:50.202Z,19.95
2016-12-17T09:22:50.182Z,19.97
2016-12-17T09:23:50.168Z,20.04
2016-12-17T09:24:49.520Z,19.98
2016-12-17T09:25:50.131Z,19.98
2016-12-17T09:26:49.801Z,20
2016-12-17T09:27:50.103Z,19.9
2016-12-17T09:28:50.083Z,19.97
2016-12-17T09:29:49.780Z,20
2016-12-17T09:30:50.053Z,19.95
2016-12-17T09:31:49.720Z,20
2016-12-17T09:32:50.040Z,19.97
2016-12-17T09:33:49.685Z,19.95
2016-12-17T09:34:49.994Z,19.95
2016-12-17T09:35:49.339Z,19.92
2016-12-17T09:36:49.964Z,19.98
2016-12-17T09:37:49.616Z,19.95
2016-12-17T09:38:49.923Z,20
2016-12-17T09:39:49.900Z,19.98
2016-12-17T09:40:49.885Z,19.97
2016-12-17T09:41:49.871Z,19.95
2016-12-17T09:42:49.536Z,19.95
2016-12-17T09:43:49.838Z,19.94
2016-12-17T09:44:49.820Z,19.95
2016-12-17T09:45:49.803Z,19.92
2016-12-17T09:46:49.476Z,19.94
2016-12-17T09:47:49.459Z,19.95
2016-12-17T09:48:49.751Z,19.98
2016-12-17T09:49:49.744Z,19.95
2016-12-17T09:50:49.720Z,19.94
2016-12-17T09:51:49.708Z,19.98
2016-12-17T09:52:49.374Z,19.89
2016-12-17T09:53:49.356Z,19.9
2016-12-17T09:54:49.658Z,19.98
2016-12-17T09:55:49.648Z,19.98
2016-12-17T09:56:49.313Z,19.94
2016-12-17T09:57:49.292Z,20
2016-12-17T09:58:49.276Z,19.97
2016-12-17T09:59:49.573Z,19.92
2016-12-17T10:00:49.241Z,19.95
2016-12-17T10:01:49.541Z,19.97
2016-12-17T10:02:49.202Z,19.98
2016-12-17T10:03:49.510Z,19.95
2016-12-17T10:04:49.181Z,19.94
2016-12-17T10:05:49.474Z,19.97
2016-12-17T10:06:49.453Z,19.9
2016-12-17T10:07:49.456Z,19.92
2016-12-17T10:08:49.421Z,19.97
2016-12-17T10:09:49.418Z,20.07
2016-12-17T10:10:49.392Z,19.9
2016-12-17T10:11:49.373Z,20.08
2016-12-17T10:12:49.360Z,20.05
2016-12-17T10:13:49.025Z,20
2016-12-17T10:14:49.009Z,19.94
2016-12-17T10:15:48.988Z,20.04
2016-12-17T10:16:49.297Z,19.97
2016-12-17T10:17:49.306Z,19.98
2016-12-17T10:18:49.266Z,20
2016-12-17T10:19:49.255Z,19.98
2016-12-17T10:20:49.230Z,20.15
2016-12-17T10:21:49.212Z,20.12
2016-12-17T10:22:49.194Z,20.05
2016-12-17T10:23:48.864Z,19.97
2016-12-17T10:24:49.170Z,19.97
2016-12-17T10:25:48.828Z,19.94
2016-12-17T10:26:48.810Z,19.94
2016-12-17T10:27:49.115Z,19.95
2016-12-17T10:28:49.094Z,19.89
2016-12-17T10:29:48.759Z,19.79
2016-12-17T10:30:48.432Z,19.82
2016-12-17T10:31:48.734Z,19.82
2016-12-17T10:32:48.709Z,19.85
2016-12-17T10:33:49.010Z,19.85
2016-12-17T10:34:49.013Z,19.94
2016-12-17T10:35:48.978Z,19.92
2016-12-17T10:36:48.959Z,19.82
2016-12-17T10:37:48.951Z,19.97
2016-12-17T10:38:48.932Z,19.94
2016-12-17T10:39:48.597Z,20.02
2016-12-17T10:40:48.581Z,19.98
2016-12-17T10:41:48.889Z,19.95
2016-12-17T10:42:48.545Z,19.98
2016-12-17T10:43:48.853Z,20.13
2016-12-17T10:44:48.824Z,20.08
2016-12-17T10:45:48.181Z,20.15
2016-12-17T10:46:48.804Z,20.07
2016-12-17T10:47:48.777Z,20.02
2016-12-17T10:48:48.766Z,20.08
2016-12-17T10:49:48.115Z,20.08
2016-12-17T10:50:48.731Z,20.05
2016-12-17T10:51:48.712Z,20.07
2016-12-17T10:52:48.709Z,20.13
2016-12-17T10:53:48.679Z,20.12
2016-12-17T10:54:48.664Z,20.12
2016-12-17T10:55:48.653Z,20.08
2016-12-17T10:56:48.318Z,20.15
2016-12-17T10:57:48.613Z,20.1
2016-12-17T10:58:48.596Z,20.08
2016-12-17T10:59:48.583Z,20.17
2016-12-17T11:00:48.257Z,20.1
2016-12-17T11:01:48.546Z,20.17
2016-12-17T11:02:48.529Z,20.13
2016-12-17T11:03:47.885Z,20.07
2016-12-17T11:04:48.497Z,20.12
2016-12-17T11:05:48.479Z,20.19
2016-12-17T11:06:48.496Z,20.31
2016-12-17T11:07:48.135Z,20.22
2016-12-17T11:08:48.434Z,20.22
2016-12-17T11:09:48.418Z,20.17
2016-12-17T11:10:48.415Z,20.17
2016-12-17T11:11:48.068Z,20.13
2016-12-17T11:12:48.367Z,20.1
2016-12-17T11:13:48.041Z,20.13
2016-12-17T11:14:48.340Z,20.12
2016-12-17T11:15:48.319Z,20.1
2016-12-17T11:16:47.982Z,20.2
2016-12-17T11:17:48.285Z,20.1
2016-12-17T11:18:48.301Z,20.12
2016-12-17T11:19:47.938Z,20.07
2016-12-17T11:20:48.235Z,20.15
2016-12-17T11:21:48.218Z,20.19
2016-12-17T11:22:48.202Z,20.26
2016-12-17T11:23:48.188Z,20.22
2016-12-17T11:24:48.160Z,20.23
2016-12-17T11:25:48.149Z,20.25
2016-12-17T11:26:47.828Z,20.17
2016-12-17T11:27:48.128Z,20.19
2016-12-17T11:28:48.105Z,20.17
2016-12-17T11:29:48.087Z,20.22
2016-12-17T11:30:47.769Z,20.19
2016-12-17T11:31:47.738Z,20.19
2016-12-17T11:32:47.722Z,20.16
2016-12-17T11:33:48.021Z,20.16
2016-12-17T11:34:48.012Z,20.19
2016-12-17T11:35:47.983Z,20.2
2016-12-17T11:36:47.960Z,20.26
2016-12-17T11:37:47.956Z,20.17
2016-12-17T11:38:47.311Z,20.22
2016-12-17T11:39:47.603Z,20.17
2016-12-17T11:40:47.589Z,20.19
2016-12-17T11:41:47.573Z,20.23
2016-12-17T11:42:47.876Z,20.17
2016-12-17T11:43:47.865Z,20.17
2016-12-17T11:44:47.845Z,20.16
2016-12-17T11:45:47.832Z,20.23
2016-12-17T11:46:47.495Z,20.17
2016-12-17T11:47:47.798Z,20.19
2016-12-17T11:48:47.771Z,20.17
2016-12-17T11:49:47.764Z,20.19
2016-12-17T11:50:47.748Z,20.31
2016-12-17T11:51:47.730Z,20.25
2016-12-17T11:52:47.710Z,20.27
2016-12-17T11:53:47.385Z,20.27
2016-12-17T11:54:47.683Z,20.31
2016-12-17T11:55:47.353Z,20.33
2016-12-17T11:56:47.662Z,20.33
2016-12-17T11:57:47.633Z,20.33
2016-12-17T11:58:47.616Z,20.3
2016-12-17T11:59:47.595Z,20.34
2016-12-17T12:00:47.273Z,20.34
2016-12-17T12:01:47.561Z,20.35
2016-12-17T12:02:47.242Z,20.33
2016-12-17T12:03:47.224Z,20.33
2016-12-17T12:04:46.889Z,20.37
2016-12-17T12:05:47.502Z,20.34
2016-12-17T12:06:47.491Z,20.35
2016-12-17T12:07:47.151Z,20.35
2016-12-17T12:08:46.822Z,20.34
2016-12-17T12:09:46.797Z,20.38
2016-12-17T12:10:47.444Z,20.4
2016-12-17T12:11:47.089Z,20.38
2016-12-17T12:12:47.091Z,20.38
2016-12-17T12:13:47.056Z,20.38
2016-12-17T12:14:47.039Z,20.4
2016-12-17T12:15:47.022Z,20.4
2016-12-17T12:16:47.003Z,20.33
2016-12-17T12:17:47.303Z,20.44
2016-12-17T12:18:47.286Z,20.37
2016-12-17T12:19:46.963Z,20.31
2016-12-17T12:20:47.256Z,20.31
2016-12-17T12:21:47.234Z,20.34
2016-12-17T12:22:46.911Z,20.41
2016-12-17T12:23:46.892Z,20.44
2016-12-17T12:24:47.195Z,20.54
2016-12-17T12:25:47.177Z,20.5
2016-12-17T12:26:47.159Z,20.46
2016-12-17T12:27:46.828Z,20.53
2016-12-17T12:28:47.122Z,20.51
2016-12-17T12:29:47.116Z,20.37
2016-12-17T12:30:47.093Z,19.68
2016-12-17T12:31:46.760Z,19.61
2016-12-17T12:32:47.067Z,19.79
2016-12-17T12:33:46.729Z,19.89
2016-12-17T12:34:46.714Z,20.13
2016-12-17T12:35:47.005Z,20.17
2016-12-17T12:36:46.998Z,20.27
2016-12-17T12:37:46.978Z,20.38
2016-12-17T12:38:46.641Z,20.33
2016-12-17T12:39:46.940Z,20.42
2016-12-17T12:40:46.935Z,20.53
2016-12-17T12:41:46.601Z,20.46
2016-12-17T12:42:46.892Z,20.5
2016-12-17T12:43:46.886Z,20.54
2016-12-17T12:44:46.545Z,20.5
2016-12-17T12:45:46.844Z,20.54
2016-12-17T12:46:46.831Z,20.57
2016-12-17T12:47:46.822Z,20.5
2016-12-17T12:48:46.806Z,20.58
2016-12-17T12:49:46.469Z,20.6
2016-12-17T12:50:46.442Z,20.66
2016-12-17T12:51:46.753Z,20.57
2016-12-17T12:52:46.425Z,20.57
2016-12-17T12:53:46.722Z,20.57
2016-12-17T12:54:46.702Z,20.6
2016-12-17T12:55:46.368Z,20.61